createdAt,value
2023-02-25T00:02:09.734Z,98358.56
2023-02-25T00:04:42.162Z,98351.81
2023-02-25T00:07:12.621Z,98361.66
2023-02-25T00:09:41.649Z,98363.75
2023-02-25T00:12:12.846Z,98359.31
2023-02-25T00:14:41.804Z,98365.78
2023-02-25T00:17:10.865Z,98362.66
2023-02-25T00:19:40.311Z,98364.47
2023-02-25T00:22:09.332Z,98361.88
2023-02-25T00:24:39.712Z,98363.16
2023-02-25T00:27:09.051Z,98362.63
2023-02-25T00:29:38.391Z,98362.84
2023-02-25T00:32:08.198Z,98362.63
2023-02-25T00:34:38.866Z,98380.78
2023-02-25T00:37:08.332Z,98363.66
2023-02-25T00:39:43.208Z,98369.59
2023-02-25T00:42:15.164Z,98376.88
2023-02-25T00:44:46.424Z,98391.66
2023-02-25T00:47:17.137Z,98387.50
2023-02-25T00:49:48.717Z,98386.19
2023-02-25T00:52:18.410Z,98386.47
2023-02-25T00:54:50.830Z,98386.19
2023-02-25T00:57:20.313Z,98395.78
2023-02-25T00:59:50.986Z,98397.81
2023-02-25T01:02:20.514Z,98397.06
2023-02-25T01:04:50.019Z,98401.44
2023-02-25T01:07:20.925Z,98407.66
2023-02-25T01:09:51.843Z,98398.31
2023-02-25T01:12:21.267Z,98406.34
2023-02-25T01:14:50.740Z,98412.78
2023-02-25T01:17:20.260Z,98400.84
2023-02-25T01:19:51.159Z,98413.84
2023-02-25T01:22:20.824Z,98404.72
2023-02-25T01:24:51.657Z,98398.22
2023-02-25T01:27:21.046Z,98401.81
2023-02-25T01:29:51.192Z,98401.81
2023-02-25T01:32:20.699Z,98395.88
2023-02-25T01:34:50.731Z,98389.88
2023-02-25T01:37:20.080Z,98385.50
2023-02-25T01:39:51.002Z,98380.00
2023-02-25T01:42:20.725Z,98375.59
2023-02-25T01:45:33.150Z,98372.69
2023-02-25T01:48:11.393Z,98381.53
2023-02-25T01:50:50.133Z,98384.13
2023-02-25T01:53:25.922Z,98387.19
2023-02-25T01:55:59.140Z,98391.06
2023-02-25T01:58:29.454Z,98395.19
2023-02-25T02:00:58.926Z,98395.19
2023-02-25T02:03:32.552Z,98394.38
2023-02-25T02:06:09.726Z,98394.38
2023-02-25T02:08:39.824Z,98389.69
2023-02-25T02:11:10.762Z,98391.72
2023-02-25T02:13:46.422Z,98389.63
2023-02-25T02:16:46.787Z,98390.13
2023-02-25T02:19:33.207Z,98395.78
2023-02-25T02:22:12.735Z,98401.69
2023-02-25T02:25:27.185Z,98391.00
2023-02-25T02:28:52.056Z,98404.47
2023-02-25T02:31:49.476Z,98406.28
2023-02-25T02:34:37.691Z,98396.47
2023-02-25T02:37:23.105Z,98407.34
2023-02-25T02:40:05.904Z,98409.16
2023-02-25T02:42:43.808Z,98411.00
2023-02-25T02:45:20.921Z,98406.09
2023-02-25T02:47:56.103Z,98411.28
2023-02-25T02:50:33.985Z,98407.66
2023-02-25T02:53:11.248Z,98421.63
2023-02-25T02:55:44.528Z,98418.53
2023-02-25T02:58:20.133Z,98408.16
2023-02-25T03:00:56.601Z,98413.56
2023-02-25T03:03:37.436Z,98416.69
2023-02-25T03:06:12.473Z,98431.50
2023-02-25T03:08:46.793Z,98434.09
2023-02-25T03:11:16.565Z,98430.47
2023-02-25T03:13:47.986Z,98422.69
2023-02-25T03:16:24.368Z,98420.09
2023-02-25T03:19:01.149Z,98436.69
2023-02-25T03:21:39.097Z,98428.09
2023-02-25T03:24:22.501Z,98436.13
2023-02-25T03:26:54.743Z,98431.72
2023-02-25T03:29:28.653Z,98437.69
2023-02-25T03:32:03.434Z,98442.09
2023-02-25T03:34:39.979Z,98436.91
2023-02-25T03:37:15.811Z,98445.22
2023-02-25T03:39:50.301Z,98441.88
2023-02-25T03:42:24.814Z,98439.78
2023-02-25T03:44:58.880Z,98446.81
2023-02-25T03:47:29.883Z,98443.97
2023-02-25T03:50:07.917Z,98439.56
2023-02-25T03:52:38.337Z,98433.59
2023-02-25T03:55:16.491Z,98436.19
2023-02-25T03:57:50.738Z,98443.97
2023-02-25T04:00:27.499Z,98444.75
2023-02-25T04:02:57.437Z,98443.19
2023-02-25T04:05:29.214Z,98443.19
2023-02-25T04:08:01.004Z,98448.59
2023-02-25T04:10:34.353Z,98452.25
2023-02-25T04:13:03.875Z,98455.06
2023-02-25T04:15:33.377Z,98457.91
2023-02-25T04:18:03.344Z,98462.06
2023-02-25T04:20:34.415Z,98464.13
2023-02-25T04:23:04.197Z,98460.50
2023-02-25T04:25:34.508Z,98467.25
2023-02-25T04:28:03.974Z,98466.47
2023-02-25T04:30:34.464Z,98474.78
2023-02-25T04:33:04.343Z,98479.72
2023-02-25T04:35:35.209Z,98478.69
2023-02-25T04:38:04.608Z,98485.94
2023-02-25T04:40:34.832Z,98481.28
2023-02-25T04:43:04.294Z,98480.53
2023-02-25T04:45:33.645Z,98478.69
2023-02-25T04:48:03.659Z,98471.94
2023-02-25T04:50:34.498Z,98473.50
2023-02-25T04:53:04.050Z,98483.88
2023-02-25T04:55:33.490Z,98478.69
2023-02-25T04:58:03.008Z,98459.78
2023-02-25T05:00:32.470Z,98471.94
2023-02-25T05:03:01.798Z,98472.97
2023-02-25T05:05:31.261Z,98468.78
2023-02-25T05:08:02.048Z,98459.47
2023-02-25T05:10:31.498Z,98457.91
2023-02-25T05:13:00.859Z,98458.69
2023-02-25T05:15:30.242Z,98456.09
2023-02-25T05:17:59.628Z,98455.53
2023-02-25T05:20:30.619Z,98464.66
2023-02-25T05:23:01.482Z,98459.69
2023-02-25T05:25:30.900Z,98469.06
2023-02-25T05:28:00.386Z,98463.09
2023-02-25T05:30:29.888Z,98468.28
2023-02-25T05:32:59.337Z,98465.69
2023-02-25T05:35:28.786Z,98462.75
2023-02-25T05:37:58.242Z,98470.53
2023-02-25T05:40:29.209Z,98476.75
2023-02-25T05:42:58.615Z,98466.63
2023-02-25T05:45:28.126Z,98454.13
2023-02-25T05:47:57.606Z,98473.63
2023-02-25T05:50:28.472Z,98466.06
2023-02-25T05:52:58.225Z,98477.47
2023-02-25T05:55:28.984Z,98469.16
2023-02-25T05:57:58.400Z,98473.56
2023-02-25T06:00:28.011Z,98468.63
2023-02-25T06:02:57.506Z,98471.75
2023-02-25T06:05:26.904Z,98480.53
2023-02-25T06:07:56.324Z,98473.31
2023-02-25T06:10:25.861Z,98472.75
2023-02-25T06:12:56.653Z,98466.03
2023-02-25T06:15:25.958Z,98476.38
2023-02-25T06:17:55.747Z,98475.59
2023-02-25T06:20:28.065Z,98469.66
2023-02-25T06:22:57.551Z,98474.59
2023-02-25T06:25:30.122Z,98484.88
2023-02-25T06:28:01.991Z,98475.31
2023-02-25T06:30:32.716Z,98478.94
2023-02-25T06:33:02.192Z,98483.31
2023-02-25T06:35:31.738Z,98482.28
2023-02-25T06:38:02.243Z,98481.25
2023-02-25T06:40:33.568Z,98479.94
2023-02-25T06:43:33.137Z,98493.34
2023-02-25T06:46:25.099Z,98509.34
2023-02-25T06:48:55.785Z,98507.25
2023-02-25T06:51:25.901Z,98509.84
2023-02-25T06:53:55.294Z,98513.44
2023-02-25T06:56:26.723Z,98507.50
2023-02-25T06:58:59.383Z,98508.75
2023-02-25T07:01:29.041Z,98511.56
2023-02-25T07:03:58.495Z,98512.13
2023-02-25T07:06:27.962Z,98511.88
2023-02-25T07:08:57.520Z,98525.31
2023-02-25T07:11:35.810Z,98521.16
2023-02-25T07:14:08.065Z,98521.63
2023-02-25T07:16:37.815Z,98526.03
2023-02-25T07:19:07.189Z,98526.25
2023-02-25T07:21:38.300Z,98524.69
2023-02-25T07:24:08.351Z,98528.56
2023-02-25T07:26:38.399Z,98543.53
2023-02-25T07:29:09.308Z,98541.28
2023-02-25T07:31:38.844Z,98539.22
2023-02-25T07:34:08.373Z,98537.09
2023-02-25T07:36:38.114Z,98546.44
2023-02-25T07:39:09.320Z,98543.31
2023-02-25T07:41:38.930Z,98536.56
2023-02-25T07:44:09.934Z,98537.34
2023-02-25T07:46:39.740Z,98529.81
2023-02-25T07:49:09.392Z,98546.91
2023-02-25T07:51:38.899Z,98551.06
2023-02-25T07:54:08.435Z,98546.91
2023-02-25T07:56:37.871Z,98555.50
2023-02-25T07:59:07.306Z,98555.78
2023-02-25T08:01:39.703Z,98546.00
2023-02-25T08:04:10.538Z,98552.72
2023-02-25T08:06:42.081Z,98551.16
2023-02-25T08:09:12.496Z,98553.75
2023-02-25T08:11:44.181Z,98557.13
2023-02-25T08:14:13.676Z,98552.97
2023-02-25T08:16:44.387Z,98558.38
2023-02-25T08:19:13.792Z,98565.59
2023-02-25T08:21:43.117Z,98570.31
2023-02-25T08:24:12.551Z,98547.78
2023-02-25T08:26:41.985Z,98550.38
2023-02-25T08:29:11.396Z,98550.84
2023-02-25T08:31:41.024Z,98550.84
2023-02-25T08:34:12.307Z,98550.53
2023-02-25T08:36:41.666Z,98555.72
2023-02-25T08:39:12.696Z,98556.25
2023-02-25T08:41:42.969Z,98547.22
2023-02-25T08:44:12.618Z,98555.78
2023-02-25T08:46:43.088Z,98549.56
2023-02-25T08:49:14.717Z,98545.75
2023-02-25T08:51:44.047Z,98552.25
2023-02-25T08:54:15.428Z,98554.84
2023-02-25T08:56:45.736Z,98550.19
2023-02-25T08:59:17.021Z,98555.38
2023-02-25T09:01:46.453Z,98562.16
2023-02-25T09:04:25.631Z,98557.75
2023-02-25T09:06:55.117Z,98560.09
2023-02-25T09:09:24.574Z,98558.06
2023-02-25T09:11:54.898Z,98556.00
2023-02-25T09:14:24.399Z,98563.56
2023-02-25T09:16:53.928Z,98561.19
2023-02-25T09:19:24.908Z,98561.75
2023-02-25T09:21:54.294Z,98562.78
2023-02-25T09:24:24.256Z,98564.34
2023-02-25T09:26:53.704Z,98567.53
2023-02-25T09:29:23.097Z,98562.88
2023-02-25T09:31:54.126Z,98553.06
2023-02-25T09:34:25.054Z,98554.63
2023-02-25T09:36:54.460Z,98562.41
2023-02-25T09:39:23.871Z,98552.28
2023-02-25T09:41:57.497Z,98567.53
2023-02-25T09:44:31.082Z,98562.34
2023-02-25T09:47:06.680Z,98567.78
2023-02-25T09:49:40.119Z,98565.94
2023-02-25T09:52:18.715Z,98549.69
2023-02-25T09:54:51.384Z,98558.25
2023-02-25T09:57:23.577Z,98549.44
2023-02-25T09:59:54.655Z,98557.22
2023-02-25T10:02:38.529Z,98558.56
2023-02-25T10:05:22.966Z,98549.53
2023-02-25T10:08:04.315Z,98543.31
2023-02-25T10:10:46.838Z,98551.41
2023-02-25T10:13:30.482Z,98540.50
2023-02-25T10:16:09.566Z,98542.84
2023-02-25T10:19:03.846Z,98539.22
2023-02-25T10:21:55.939Z,98536.63
2023-02-25T10:24:35.933Z,98535.59
2023-02-25T10:27:20.781Z,98542.38
2023-02-25T10:29:53.843Z,98536.16
2023-02-25T10:32:27.607Z,98540.31
2023-02-25T10:35:01.871Z,98545.81
2023-02-25T10:37:35.810Z,98547.38
2023-02-25T10:40:11.263Z,98547.16
2023-02-25T10:42:40.774Z,98548.00
2023-02-25T10:45:15.155Z,98557.09
2023-02-25T10:47:50.148Z,98545.25
2023-02-25T10:50:38.923Z,98541.88
2023-02-25T10:53:19.039Z,98541.63
2023-02-25T10:55:52.966Z,98544.75
2023-02-25T10:58:37.669Z,98531.31
2023-02-25T11:01:17.888Z,98535.00
2023-02-25T11:03:58.979Z,98538.13
2023-02-25T11:06:32.038Z,98536.09
2023-02-25T11:09:06.919Z,98540.25
2023-02-25T11:11:38.676Z,98535.63
2023-02-25T11:14:17.163Z,98541.81
2023-02-25T11:16:47.860Z,98538.22
2023-02-25T11:19:22.885Z,98540.81
2023-02-25T11:21:54.350Z,98554.56
2023-02-25T11:24:33.436Z,98548.09
2023-02-25T11:27:04.889Z,98545.25
2023-02-25T11:29:39.599Z,98534.09
2023-02-25T11:32:15.378Z,98537.00
2023-02-25T11:34:51.000Z,98541.19
2023-02-25T11:37:36.877Z,98547.13
2023-02-25T11:40:24.853Z,98540.94
2023-02-25T11:43:18.888Z,98546.66
2023-02-25T11:45:54.276Z,98541.00
2023-02-25T11:48:28.664Z,98537.34
2023-02-25T11:51:06.956Z,98534.28
2023-02-25T11:54:08.170Z,98552.94
2023-02-25T11:56:43.960Z,98529.34
2023-02-25T11:59:31.973Z,98527.06
2023-02-25T12:02:35.575Z,98521.06
2023-02-25T12:05:47.834Z,98524.47
2023-02-25T12:08:47.264Z,98528.38
2023-02-25T12:12:16.242Z,98506.34
2023-02-25T12:15:20.325Z,98508.44
2023-02-25T12:18:26.538Z,98501.75
2023-02-25T12:21:52.209Z,98490.88
2023-02-25T12:25:15.504Z,98483.09
2023-02-25T12:28:45.276Z,98499.69
2023-02-25T12:31:53.788Z,98481.53
2023-02-25T12:35:07.700Z,98481.53
2023-02-25T12:37:54.085Z,98490.13
2023-02-25T12:40:44.106Z,98476.84
2023-02-25T12:43:26.118Z,98484.22
2023-02-25T12:49:28.161Z,98487.66
2023-02-25T12:52:18.659Z,98491.09
2023-02-25T12:55:48.321Z,98492.66
2023-02-25T12:58:40.648Z,98488.00
2023-02-25T13:01:44.466Z,98488.56
2023-02-25T13:05:08.200Z,98493.50
2023-02-25T13:08:25.435Z,98495.81
2023-02-25T13:11:02.896Z,98491.97
2023-02-25T13:14:06.219Z,98497.94
2023-02-25T13:16:52.862Z,98490.72
2023-02-25T13:20:19.195Z,98484.50
2023-02-25T13:23:13.752Z,98487.09
2023-02-25T13:26:04.715Z,98493.53
2023-02-25T13:28:55.902Z,98497.41
2023-02-25T13:31:38.390Z,98499.22
2023-02-25T13:34:23.792Z,98501.31
2023-02-25T13:37:16.220Z,98509.31
2023-02-25T13:40:27.518Z,98513.41
2023-02-25T13:43:23.145Z,98502.78
2023-02-25T13:46:11.031Z,98496.03
2023-02-25T13:49:02.541Z,98495.00
2023-02-25T13:51:58.550Z,98504.06
2023-02-25T13:55:17.486Z,98498.88
2023-02-25T13:58:13.859Z,98499.44
2023-02-25T14:01:23.949Z,98505.94
2023-02-25T14:04:35.254Z,98500.50
2023-02-25T14:07:43.864Z,98490.63
2023-02-25T14:10:30.574Z,98499.56
2023-02-25T14:13:24.978Z,98500.63
2023-02-25T14:16:07.354Z,98500.16
2023-02-25T14:19:17.412Z,98506.91
2023-02-25T14:22:22.315Z,98508.47
2023-02-25T14:25:04.997Z,98512.41
2023-02-25T14:27:43.827Z,98508.53
2023-02-25T14:30:27.677Z,98506.44
2023-02-25T14:33:14.475Z,98514.22
2023-02-25T14:36:23.678Z,98505.91
2023-02-25T14:39:20.659Z,98517.31
2023-02-25T14:42:06.038Z,98525.91
2023-02-25T14:44:42.419Z,98522.50
2023-02-25T14:47:22.647Z,98517.88
2023-02-25T14:50:00.189Z,98520.47
2023-02-25T14:53:26.534Z,98529.00
2023-02-25T14:56:47.676Z,98534.44
2023-02-25T15:00:02.473Z,98523.28
2023-02-25T15:03:04.759Z,98536.03
2023-02-25T15:06:04.770Z,98530.03
2023-02-25T15:09:03.466Z,98537.81
2023-02-25T15:11:50.764Z,98544.81
2023-02-25T15:14:59.083Z,98537.50
2023-02-25T15:18:12.950Z,98545.31
2023-02-25T15:20:44.209Z,98545.88
2023-02-25T15:23:16.531Z,98533.66
2023-02-25T15:25:53.942Z,98539.09
2023-02-25T15:28:42.714Z,98571.28
2023-02-25T15:31:39.145Z,98608.69
2023-02-25T15:34:38.344Z,98602.31
2023-02-25T15:37:34.753Z,98624.06
2023-02-25T15:40:49.009Z,98635.75
2023-02-25T15:43:42.933Z,98656.22
2023-02-25T15:46:45.949Z,98673.91
2023-02-25T15:49:31.961Z,98675.38
2023-02-25T15:52:05.473Z,98682.94
2023-02-25T15:54:51.285Z,98681.38
2023-02-25T15:57:41.993Z,98679.38
2023-02-25T16:00:54.094Z,98688.00
2023-02-25T16:03:44.741Z,98693.09
2023-02-25T16:06:23.053Z,98700.53
2023-02-25T16:09:02.391Z,98695.28
2023-02-25T16:11:39.217Z,98689.00
2023-02-25T16:14:16.389Z,98679.09
2023-02-25T16:16:51.039Z,98684.72
2023-02-25T16:19:24.256Z,98685.94
2023-02-25T16:21:59.378Z,98683.63
2023-02-25T16:24:33.695Z,98688.00
2023-02-25T16:27:19.164Z,98690.03
2023-02-25T16:30:01.467Z,98695.66
2023-02-25T16:32:41.155Z,98705.25
2023-02-25T16:35:17.402Z,98693.28
2023-02-25T16:38:00.346Z,98702.88
2023-02-25T16:40:37.028Z,98710.53
2023-02-25T16:43:08.308Z,98708.19
2023-02-25T16:45:43.777Z,98719.03
2023-02-25T16:48:19.636Z,98708.66
2023-02-25T16:50:51.472Z,98725.66
2023-02-25T16:53:24.700Z,98722.50
2023-02-25T16:56:01.807Z,98704.84
2023-02-25T16:58:32.269Z,98732.22
2023-02-25T17:01:04.566Z,98758.09
2023-02-25T17:03:49.831Z,98739.84
2023-02-25T17:06:21.822Z,98760.78
2023-02-25T17:08:56.159Z,98732.53
2023-02-25T17:11:30.577Z,98745.69
2023-02-25T17:14:06.418Z,98754.16
2023-02-25T17:16:46.703Z,98762.38
2023-02-25T17:19:21.392Z,98741.09
2023-02-25T17:21:55.995Z,98772.59
2023-02-25T17:24:33.834Z,98777.78
2023-02-25T17:27:13.269Z,98756.97
2023-02-25T17:29:48.814Z,98772.72
2023-02-25T17:32:28.957Z,98774.75
2023-02-25T17:35:10.224Z,98780.03
2023-02-25T17:37:46.654Z,98800.59
2023-02-25T17:40:27.807Z,98787.78
2023-02-25T17:43:24.689Z,98793.00
2023-02-25T17:45:59.666Z,98786.72
2023-02-25T17:48:43.569Z,98819.78
2023-02-25T17:51:40.833Z,98817.50
2023-02-25T17:54:24.117Z,98822.34
2023-02-25T17:57:17.810Z,98820.41
2023-02-25T18:00:43.855Z,98860.06
2023-02-25T18:03:25.526Z,98792.16
2023-02-25T18:06:01.188Z,98834.31
2023-02-25T18:08:52.391Z,98845.31
2023-02-25T18:11:29.439Z,98833.84
2023-02-25T18:14:09.072Z,98837.44
2023-02-25T18:16:42.228Z,98847.19
2023-02-25T18:19:37.854Z,98852.69
2023-02-25T18:22:10.386Z,98858.81
2023-02-25T18:24:43.134Z,98858.28
2023-02-25T18:27:37.690Z,98869.03
2023-02-25T18:30:21.761Z,98871.03
2023-02-25T18:32:54.089Z,98884.97
2023-02-25T18:35:25.383Z,98873.06
2023-02-25T18:37:58.743Z,98859.78
2023-02-25T18:40:32.454Z,98903.38
2023-02-25T18:43:02.734Z,98870.22
2023-02-25T18:45:34.699Z,98879.38
2023-02-25T18:48:13.383Z,98891.72
2023-02-25T18:50:44.785Z,98912.19
2023-02-25T18:53:17.201Z,98900.50
2023-02-25T18:55:48.260Z,98897.53
2023-02-25T18:58:21.530Z,98899.78
2023-02-25T19:01:01.432Z,98898.81
2023-02-25T19:03:39.532Z,98909.72
2023-02-25T19:06:11.603Z,98926.47
2023-02-25T19:08:44.334Z,98920.28
2023-02-25T19:11:21.550Z,98933.41
2023-02-25T19:13:52.415Z,98920.91
2023-02-25T19:16:28.699Z,98931.47
2023-02-25T19:19:00.342Z,98916.59
2023-02-25T19:21:33.354Z,98933.91
2023-02-25T19:24:04.364Z,98931.75
2023-02-25T19:26:34.193Z,98936.31
2023-02-25T19:29:04.219Z,98938.91
2023-02-25T19:31:37.525Z,98949.44
2023-02-25T19:34:12.114Z,98953.84
2023-02-25T19:36:42.424Z,98941.34
2023-02-25T19:39:14.616Z,98940.75
2023-02-25T19:41:44.945Z,98958.41
2023-02-25T19:44:15.186Z,98965.94
2023-02-25T19:46:48.478Z,98945.16
2023-02-25T19:49:20.320Z,98974.91
2023-02-25T19:51:53.377Z,98978.50
2023-02-25T19:54:27.046Z,98984.84
2023-02-25T19:56:57.465Z,98987.66
2023-02-25T19:59:30.918Z,98993.03
2023-02-25T20:02:00.140Z,98998.44
2023-02-25T20:04:30.986Z,99006.19
2023-02-25T20:07:00.154Z,99002.00
2023-02-25T20:09:29.142Z,99010.94
2023-02-25T20:12:02.519Z,99005.41
2023-02-25T20:14:33.157Z,99004.84
2023-02-25T20:17:03.371Z,99013.59
2023-02-25T20:19:34.367Z,99015.38
2023-02-25T20:22:06.956Z,99023.13
2023-02-25T20:24:37.215Z,99016.38
2023-02-25T20:27:06.186Z,99021.53
2023-02-25T20:29:37.455Z,99021.53
2023-02-25T20:32:06.574Z,99024.13
2023-02-25T20:34:37.670Z,99021.53
2023-02-25T20:37:13.330Z,99032.09
2023-02-25T20:39:53.428Z,99033.25
2023-02-25T20:42:25.632Z,99030.13
2023-02-25T20:44:55.912Z,99031.34
2023-02-25T20:47:34.953Z,99033.91
2023-02-25T20:50:08.272Z,99046.22
2023-02-25T20:52:37.498Z,99047.22
2023-02-25T20:55:07.830Z,99037.88
2023-02-25T20:57:36.863Z,99042.84
2023-02-25T21:00:12.580Z,99054.97
2023-02-25T21:02:41.973Z,99054.16
2023-02-25T21:05:12.439Z,99048.22
2023-02-25T21:07:41.525Z,99061.13
2023-02-25T21:10:12.542Z,99064.91
2023-02-25T21:12:41.524Z,99064.91
2023-02-25T21:15:12.331Z,99068.50
2023-02-25T21:17:42.271Z,99072.84
2023-02-25T21:20:13.482Z,99076.41
2023-02-25T21:22:44.666Z,99079.19
2023-02-25T21:25:16.044Z,99082.59
2023-02-25T21:27:45.054Z,99085.38
2023-02-25T21:30:14.604Z,99069.50
2023-02-25T21:32:43.622Z,99074.84
2023-02-25T21:35:13.954Z,99080.22
2023-02-25T21:37:43.617Z,99082.03
2023-02-25T21:40:14.048Z,99080.44
2023-02-25T21:42:43.002Z,99076.47
2023-02-25T21:45:13.063Z,99088.81
2023-02-25T21:47:42.043Z,99081.28
2023-02-25T21:50:13.582Z,99078.91
2023-02-25T21:52:42.598Z,99080.88
2023-02-25T21:55:11.872Z,99082.66
2023-02-25T21:57:41.397Z,99083.66
2023-02-25T22:00:12.502Z,99090.03
2023-02-25T22:02:41.605Z,99100.34
2023-02-25T22:05:15.923Z,99102.53
2023-02-25T22:07:44.962Z,99101.97
2023-02-25T22:10:15.115Z,99096.00
2023-02-25T22:12:44.184Z,99099.59
2023-02-25T22:15:13.646Z,99099.59
2023-02-25T22:17:42.848Z,99105.75
2023-02-25T22:20:14.687Z,99111.13
2023-02-25T22:22:43.682Z,99110.31
2023-02-25T22:25:15.064Z,99105.56
2023-02-25T22:27:44.027Z,99118.44
2023-02-25T22:30:14.406Z,99109.13
2023-02-25T22:32:43.362Z,99111.91
2023-02-25T22:35:12.437Z,99111.13
2023-02-25T22:37:42.949Z,99117.47
2023-02-25T22:40:15.162Z,99114.91
2023-02-25T22:42:44.150Z,99121.06
2023-02-25T22:45:13.271Z,99126.22
2023-02-25T22:47:42.783Z,99129.56
2023-02-25T22:50:12.818Z,99128.81
2023-02-25T22:52:44.322Z,99121.06
2023-02-25T22:55:14.148Z,99128.00
2023-02-25T22:57:46.051Z,99134.16
2023-02-25T23:00:16.933Z,99133.34
2023-02-25T23:02:49.153Z,99131.59
2023-02-25T23:05:18.349Z,99132.75
2023-02-25T23:07:49.741Z,99135.56
2023-02-25T23:10:19.299Z,99127.84
2023-02-25T23:12:48.314Z,99135.78
2023-02-25T23:15:20.125Z,99138.56
2023-02-25T23:17:49.089Z,99135.38
2023-02-25T23:20:18.492Z,99136.94
2023-02-25T23:22:50.963Z,99144.09
2023-02-25T23:25:20.596Z,99147.66
2023-02-25T23:27:50.105Z,99144.50
2023-02-25T23:30:19.893Z,99147.28
2023-02-25T23:32:48.880Z,99142.31
2023-02-25T23:35:21.205Z,99150.88
2023-02-25T23:37:51.690Z,99152.03
2023-02-25T23:40:20.961Z,99151.25
2023-02-25T23:42:49.932Z,99143.72
2023-02-25T23:45:19.180Z,99154.03
2023-02-25T23:47:48.221Z,99157.38
2023-02-25T23:50:18.246Z,99156.00
2023-02-25T23:52:50.916Z,99154.44
2023-02-25T23:55:20.626Z,99149.28
2023-02-25T23:57:49.790Z,99163.19
